La Carlota, Argentina
Current Conditions -  °F | °C
As of 5:00 PM on Wednesday 26 Nov 2014 (Local Time) from SAOC Reporting Station
Clear Clear  
Wind Chill: 82°   Ceiling: Unl
Heat Index: 82°   Visibility: 6mi
Dew Point: 52°   Wind: 9mph
Humidity: 35%   Direction: 320°NW
Pressure: 29.88"   Gusts: NA
Location:  33.43°S, 63.3°W
Report Text: SAOC 262000Z 32008KT CAVOK 28/11 Q1012
Loading
Personal Weather Stations






























Interactive Weather Map New forecast layout! Learn more

10-Day Weather Forecast

Advertisements
Track Severe Weather on mobile